Time;durP1;ratioP1;P1;durP2;ratioP2;P2;SDS_P1;SDS_P2;PMS_P1;PMS_P2;Temp;Humidity;BMP_temperature;BMP_pressure;BME280_temperature;BME280_humidity;BME280_pressure;Samples;Min_cycle;Max_cycle;Signal;HPM_P1;HPM_P2
2023/12/21 00:00:36;;;;;;;15.10;3.67;;;9.30;99.90;;;;;;5031320;28;20032;-88
2023/12/21 00:03:02;;;;;;;16.55;3.70;;;9.40;99.90;;;;;;5064038;28;20041;-87
2023/12/21 00:05:28;;;;;;;16.70;3.65;;;9.40;99.90;;;;;;5050487;28;20036;-88
2023/12/21 00:07:53;;;;;;;15.95;3.40;;;9.30;99.90;;;;;;5063936;28;20048;-88
2023/12/21 00:10:19;;;;;;;16.58;4.18;;;9.40;99.90;;;;;;5030868;28;20092;-88
2023/12/21 00:12:45;;;;;;;9.73;2.90;;;9.40;99.90;;;;;;5080315;28;20036;-88
2023/12/21 00:15:11;;;;;;;13.65;3.13;;;9.50;99.90;;;;;;5063802;28;20035;-89
2023/12/21 00:17:36;;;;;;;11.25;2.78;;;9.40;99.90;;;;;;5029599;28;20033;-87
2023/12/21 00:20:03;;;;;;;11.65;3.15;;;9.30;99.90;;;;;;5047414;28;20074;-89
2023/12/21 00:22:28;;;;;;;10.27;2.60;;;9.30;99.90;;;;;;5063869;28;20080;-89
2023/12/21 00:24:54;;;;;;;14.40;2.70;;;9.30;99.90;;;;;;5046672;28;20035;-89
2023/12/21 00:27:20;;;;;;;12.50;2.80;;;9.30;99.90;;;;;;5063493;28;20043;-89
2023/12/21 00:29:45;;;;;;;14.70;3.35;;;9.30;99.90;;;;;;5040388;28;20043;-88
2023/12/21 00:32:11;;;;;;;14.23;3.15;;;9.30;99.90;;;;;;5053654;28;20040;-88
2023/12/21 00:34:37;;;;;;;13.50;3.03;;;9.30;99.90;;;;;;5047163;28;20044;-88
2023/12/21 00:37:03;;;;;;;12.38;4.15;;;9.30;99.90;;;;;;5046899;28;20071;-88
2023/12/21 00:39:28;;;;;;;10.10;2.83;;;9.30;99.90;;;;;;5044885;28;20665;-88
2023/12/21 00:41:54;;;;;;;12.73;3.22;;;9.30;99.90;;;;;;5047600;28;20399;-88
2023/12/21 00:44:20;;;;;;;13.93;2.67;;;9.30;99.90;;;;;;5067392;28;20092;-88
2023/12/21 00:46:45;;;;;;;13.25;3.30;;;9.30;99.90;;;;;;5050922;28;20266;-88
2023/12/21 00:49:11;;;;;;;11.05;2.65;;;9.30;99.90;;;;;;5051048;28;20060;-87
2023/12/21 00:51:37;;;;;;;14.13;3.75;;;9.40;99.90;;;;;;5049603;28;20028;-88
2023/12/21 00:54:03;;;;;;;12.23;3.28;;;9.40;99.90;;;;;;5067210;28;20112;-88
2023/12/21 00:56:30;;;;;;;10.93;3.05;;;9.40;99.90;;;;;;5050573;28;20032;-88
2023/12/21 00:58:59;;;;;;;15.90;3.38;;;9.30;99.90;;;;;;5066716;28;20071;-88
2023/12/21 01:01:26;;;;;;;11.43;2.75;;;9.30;99.90;;;;;;5035248;28;20028;-88
2023/12/21 01:03:52;;;;;;;12.27;3.00;;;9.40;99.90;;;;;;5067512;28;20025;-88
2023/12/21 01:06:18;;;;;;;12.95;2.97;;;9.30;99.90;;;;;;5064296;28;20163;-88
2023/12/21 01:08:44;;;;;;;12.48;3.00;;;9.30;99.90;;;;;;5047304;28;20041;-88
2023/12/21 01:11:10;;;;;;;15.70;3.58;;;9.30;99.90;;;;;;5046586;28;20052;-88
2023/12/21 01:13:37;;;;;;;10.75;2.72;;;9.30;99.90;;;;;;5062269;28;20028;-88
2023/12/21 01:16:03;;;;;;;12.20;2.63;;;9.30;99.90;;;;;;5050239;28;20024;-88
2023/12/21 01:18:28;;;;;;;17.15;3.65;;;9.30;99.90;;;;;;5082920;28;20294;-89
2023/12/21 01:20:54;;;;;;;15.30;3.03;;;9.30;99.90;;;;;;5033948;28;20109;-88
2023/12/21 01:23:20;;;;;;;14.35;3.20;;;9.30;99.90;;;;;;5050450;28;20091;-89
2023/12/21 01:25:46;;;;;;;14.57;3.33;;;9.30;99.90;;;;;;5067112;28;20295;-88
2023/12/21 01:28:12;;;;;;;13.20;3.15;;;9.20;99.90;;;;;;5039742;28;20099;-88
2023/12/21 01:30:37;;;;;;;15.90;3.83;;;9.20;99.90;;;;;;5049013;28;20028;-88
2023/12/21 01:33:03;;;;;;;13.88;3.40;;;9.20;99.90;;;;;;5060023;28;20070;-88
2023/12/21 01:35:29;;;;;;;12.30;2.75;;;9.20;99.90;;;;;;5068053;28;20259;-88
2023/12/21 01:37:55;;;;;;;14.65;3.40;;;9.20;99.90;;;;;;5086187;28;20339;-90
2023/12/21 01:40:23;;;;;;;12.18;3.00;;;9.20;99.90;;;;;;5061352;28;20028;-89
2023/12/21 01:42:49;;;;;;;11.40;2.90;;;9.20;99.90;;;;;;5069569;28;20119;-89
2023/12/21 01:45:14;;;;;;;13.65;3.40;;;9.10;99.90;;;;;;5069470;28;20043;-88
2023/12/21 01:47:41;;;;;;;11.23;3.10;;;9.10;99.90;;;;;;5069405;28;20035;-88
2023/12/21 01:50:08;;;;;;;10.75;3.03;;;9.10;99.90;;;;;;5047610;28;20042;-89
2023/12/21 01:52:35;;;;;;;12.73;2.90;;;9.20;99.90;;;;;;5055864;28;20059;-88
2023/12/21 01:55:02;;;;;;;14.77;3.28;;;9.20;99.90;;;;;;5098040;28;20273;-88
2023/12/21 01:57:28;;;;;;;11.63;2.70;;;9.20;99.90;;;;;;5056627;28;20028;-89
2023/12/21 01:59:54;;;;;;;13.60;3.13;;;9.10;99.90;;;;;;5069017;28;20024;-88
2023/12/21 02:02:19;;;;;;;13.52;3.35;;;9.10;99.90;;;;;;5070805;28;20392;-88
2023/12/21 02:04:46;;;;;;;8.95;2.88;;;9.10;99.90;;;;;;5070946;28;20149;-88
2023/12/21 02:07:12;;;;;;;10.27;2.63;;;9.10;99.90;;;;;;5086122;28;20334;-88
2023/12/21 02:09:38;;;;;;;10.25;2.90;;;9.10;99.90;;;;;;5050938;28;20048;-87
2023/12/21 02:12:04;;;;;;;9.80;2.97;;;9.10;99.90;;;;;;5069180;28;20028;-88
2023/12/21 02:14:30;;;;;;;12.57;3.15;;;9.00;99.90;;;;;;5086216;28;20048;-88
2023/12/21 02:17:17;;;;;;;11.07;2.63;;;9.10;99.90;;;;;;5041253;28;20195;-88
2023/12/21 02:19:43;;;;;;;14.38;3.20;;;9.10;99.90;;;;;;5084231;28;20089;-88
2023/12/21 02:22:13;;;;;;;10.10;2.95;;;9.10;99.90;;;;;;5052407;28;20213;-88
2023/12/21 02:24:39;;;;;;;10.48;2.90;;;9.10;99.90;;;;;;5075298;28;20039;-87
2023/12/21 02:27:05;;;;;;;11.90;3.40;;;9.10;99.90;;;;;;5051317;28;20055;-88
2023/12/21 02:29:31;;;;;;;12.98;2.90;;;9.00;99.90;;;;;;5072191;28;20043;-88
2023/12/21 02:31:57;;;;;;;11.00;2.40;;;9.10;99.90;;;;;;5068810;28;20067;-88
2023/12/21 02:34:22;;;;;;;10.88;2.80;;;9.10;99.90;;;;;;5069002;28;20035;-88
2023/12/21 02:36:48;;;;;;;11.38;2.85;;;9.10;99.90;;;;;;5038147;28;20099;-88
2023/12/21 02:39:14;;;;;;;10.65;2.58;;;9.00;99.90;;;;;;5047899;28;20045;-88
2023/12/21 02:41:39;;;;;;;13.63;3.00;;;9.10;99.90;;;;;;5065099;28;20029;-88
2023/12/21 02:44:05;;;;;;;11.07;3.13;;;9.10;99.90;;;;;;5081242;28;20297;-88
2023/12/21 02:46:32;;;;;;;12.68;3.08;;;9.10;99.90;;;;;;5071383;28;20033;-87
2023/12/21 02:48:58;;;;;;;14.63;3.03;;;9.00;99.90;;;;;;5041710;28;20064;-88
2023/12/21 02:51:23;;;;;;;10.32;3.28;;;9.10;99.90;;;;;;5048489;28;20286;-89
2023/12/21 02:53:49;;;;;;;12.35;2.97;;;9.10;99.90;;;;;;5065235;28;20032;-88
2023/12/21 02:56:15;;;;;;;10.70;2.90;;;9.10;99.90;;;;;;5065149;28;20251;-88
2023/12/21 02:58:41;;;;;;;12.50;2.60;;;9.00;99.90;;;;;;5046553;28;20067;-87
2023/12/21 03:01:07;;;;;;;11.80;2.92;;;9.10;99.90;;;;;;5081629;28;20040;-87
2023/12/21 03:03:32;;;;;;;10.73;3.05;;;9.10;99.90;;;;;;5081194;28;20220;-88
2023/12/21 03:05:58;;;;;;;12.57;2.83;;;9.10;99.90;;;;;;5063812;28;20051;-87
2023/12/21 03:08:24;;;;;;;12.60;3.30;;;9.20;99.90;;;;;;5063709;28;20036;-87
2023/12/21 03:10:49;;;;;;;10.93;3.10;;;9.10;99.90;;;;;;5079946;28;20024;-88
2023/12/21 03:13:15;;;;;;;15.00;2.90;;;9.10;99.90;;;;;;5047737;28;20036;-87
2023/12/21 03:15:41;;;;;;;9.88;3.10;;;9.10;99.90;;;;;;5080891;28;20103;-88
2023/12/21 03:18:06;;;;;;;11.88;2.95;;;9.10;99.90;;;;;;5047347;28;20032;-87
2023/12/21 03:20:32;;;;;;;11.93;2.90;;;9.10;99.90;;;;;;5079799;28;20127;-87
2023/12/21 03:22:58;;;;;;;12.10;2.95;;;9.10;99.90;;;;;;5081193;28;20129;-88
2023/12/21 03:25:24;;;;;;;12.20;2.53;;;9.10;99.90;;;;;;5029793;28;20051;-89
2023/12/21 03:27:49;;;;;;;11.18;3.13;;;9.10;99.90;;;;;;5028169;28;20086;-88
2023/12/21 03:30:15;;;;;;;9.52;2.97;;;9.10;99.90;;;;;;5029282;28;20078;-88
2023/12/21 03:32:42;;;;;;;10.68;2.95;;;9.20;99.90;;;;;;5064558;28;20040;-88
2023/12/21 03:35:08;;;;;;;9.57;2.83;;;9.10;99.90;;;;;;5047791;28;20040;-88
2023/12/21 03:37:34;;;;;;;8.60;2.50;;;9.10;99.90;;;;;;5080406;28;20158;-89
2023/12/21 03:40:00;;;;;;;8.88;2.95;;;9.10;99.90;;;;;;5042585;28;20124;-87
2023/12/21 03:42:26;;;;;;;8.57;2.80;;;9.10;99.90;;;;;;5031261;28;20028;-87
2023/12/21 03:44:51;;;;;;;10.73;2.95;;;9.10;99.90;;;;;;5047104;28;20074;-87
2023/12/21 03:47:17;;;;;;;10.32;2.55;;;9.10;99.90;;;;;;5064065;28;20267;-88
2023/12/21 03:49:43;;;;;;;10.23;2.45;;;9.10;99.90;;;;;;5062517;28;20053;-87
2023/12/21 03:52:08;;;;;;;8.55;2.78;;;9.10;99.90;;;;;;5047476;28;20029;-88
2023/12/21 03:54:34;;;;;;;11.40;2.60;;;9.10;99.90;;;;;;5047509;28;20094;-87
2023/12/21 03:57:00;;;;;;;9.75;3.00;;;9.20;99.90;;;;;;5047111;28;20031;-87
2023/12/21 03:59:26;;;;;;;10.38;2.80;;;9.10;99.90;;;;;;5047016;28;20050;-85
2023/12/21 04:01:52;;;;;;;12.82;2.95;;;9.10;99.90;;;;;;5030403;28;20060;-87
2023/12/21 04:04:18;;;;;;;10.98;3.05;;;9.10;99.90;;;;;;5078869;28;20032;-88
2023/12/21 04:06:44;;;;;;;10.98;2.90;;;9.10;99.90;;;;;;5063919;28;20286;-88
2023/12/21 04:09:10;;;;;;;10.30;3.20;;;9.10;99.90;;;;;;5047013;28;20128;-88
2023/12/21 04:11:36;;;;;;;13.35;3.00;;;9.10;99.90;;;;;;5030740;28;20032;-87
2023/12/21 04:14:01;;;;;;;9.88;2.90;;;9.10;99.90;;;;;;5046462;28;20029;-87
2023/12/21 04:16:27;;;;;;;9.60;2.72;;;9.10;99.90;;;;;;5044837;28;20100;-88
2023/12/21 04:18:53;;;;;;;10.63;2.88;;;9.20;99.90;;;;;;5043705;28;20121;-88
2023/12/21 04:21:18;;;;;;;9.25;3.03;;;9.10;99.90;;;;;;5051562;28;20059;-88
2023/12/21 04:23:45;;;;;;;11.80;2.65;;;9.10;99.90;;;;;;5051804;28;20052;-88
2023/12/21 04:26:20;;;;;;;11.98;2.60;;;9.10;99.90;;;;;;5067487;28;20039;-87
2023/12/21 04:28:47;;;;;;;10.10;2.67;;;9.10;99.90;;;;;;5084818;28;20095;-87
2023/12/21 04:31:23;;;;;;;9.48;2.65;;;9.10;99.90;;;;;;5084174;28;20029;-87
2023/12/21 04:33:50;;;;;;;10.93;2.63;;;9.10;99.90;;;;;;5084823;28;20031;-87
2023/12/21 04:36:16;;;;;;;10.38;2.65;;;9.00;99.90;;;;;;5067194;28;20084;-87
2023/12/21 04:38:42;;;;;;;10.57;2.47;;;9.10;99.90;;;;;;5051452;28;20047;-88
2023/12/21 04:41:08;;;;;;;10.85;2.55;;;9.10;99.90;;;;;;5051065;28;20024;-88
2023/12/21 04:43:33;;;;;;;9.20;2.65;;;9.10;99.90;;;;;;5051412;28;20309;-88
2023/12/21 04:45:59;;;;;;;8.05;2.08;;;9.10;99.90;;;;;;5067221;28;20032;-88
2023/12/21 04:48:25;;;;;;;9.13;2.30;;;9.10;99.90;;;;;;5051593;28;20033;-87
2023/12/21 04:50:51;;;;;;;9.48;2.35;;;9.10;99.90;;;;;;5050958;28;20025;-89
2023/12/21 04:53:16;;;;;;;10.32;2.50;;;9.10;99.90;;;;;;5051700;28;20090;-89
2023/12/21 04:55:42;;;;;;;12.85;2.45;;;9.00;99.90;;;;;;5051331;28;20036;-88
2023/12/21 04:58:08;;;;;;;8.25;2.28;;;9.10;99.90;;;;;;5067494;28;20037;-88
2023/12/21 05:00:34;;;;;;;7.47;2.30;;;9.10;99.90;;;;;;5051168;28;20052;-87
2023/12/21 05:03:00;;;;;;;7.43;2.13;;;9.00;99.90;;;;;;5051094;28;20044;-88
2023/12/21 05:05:25;;;;;;;7.80;1.90;;;9.00;99.90;;;;;;5050915;28;20323;-88
2023/12/21 05:07:53;;;;;;;10.05;2.40;;;9.00;99.90;;;;;;5065925;28;20024;-88
2023/12/21 05:10:18;;;;;;;8.68;2.30;;;9.00;99.90;;;;;;5066125;28;20036;-88
2023/12/21 05:12:44;;;;;;;6.95;2.00;;;9.00;99.90;;;;;;5067311;28;20095;-88
2023/12/21 05:15:10;;;;;;;9.88;2.50;;;9.10;99.90;;;;;;5050795;28;20048;-88
2023/12/21 05:17:36;;;;;;;10.30;2.50;;;9.00;99.90;;;;;;5067108;28;20032;-87
2023/12/21 05:20:03;;;;;;;11.15;2.90;;;9.10;99.90;;;;;;5065840;28;20171;-88
2023/12/21 05:22:28;;;;;;;12.52;2.65;;;9.10;99.90;;;;;;5050625;28;20040;-88
2023/12/21 05:24:54;;;;;;;11.40;2.80;;;9.00;99.90;;;;;;5082661;28;20275;-89
2023/12/21 05:27:20;;;;;;;8.90;2.47;;;9.00;99.90;;;;;;5065708;28;20048;-89
2023/12/21 05:29:46;;;;;;;12.93;2.70;;;9.10;99.90;;;;;;5049994;28;20279;-89
2023/12/21 05:32:11;;;;;;;11.88;2.40;;;9.00;99.90;;;;;;5083405;28;20266;-89
2023/12/21 05:34:37;;;;;;;10.50;3.05;;;9.10;99.90;;;;;;5050320;28;20028;-89
2023/12/21 05:37:03;;;;;;;9.25;2.53;;;9.10;99.90;;;;;;5048421;28;20274;-88
2023/12/21 05:39:29;;;;;;;12.13;2.95;;;9.10;99.90;;;;;;5066842;28;20037;-89
2023/12/21 05:41:55;;;;;;;10.55;2.60;;;9.10;99.90;;;;;;5049858;28;20040;-88
2023/12/21 05:44:21;;;;;;;13.57;2.53;;;9.10;99.90;;;;;;5066330;28;20154;-89
2023/12/21 05:46:47;;;;;;;9.10;2.50;;;9.10;99.90;;;;;;5066027;28;20039;-89
2023/12/21 05:49:12;;;;;;;10.32;2.33;;;9.10;99.90;;;;;;5049970;28;20029;-89
2023/12/21 05:51:38;;;;;;;11.18;2.97;;;9.10;99.90;;;;;;5050175;28;20035;-90
2023/12/21 05:54:04;;;;;;;12.60;2.30;;;9.10;99.90;;;;;;5033515;28;20169;-88
2023/12/21 05:56:30;;;;;;;12.25;2.72;;;9.10;99.90;;;;;;5059558;28;20029;-89
2023/12/21 05:58:56;;;;;;;9.98;2.20;;;9.10;99.90;;;;;;5066409;28;20029;-87
2023/12/21 06:01:22;;;;;;;12.32;2.97;;;9.10;99.90;;;;;;5048577;28;20229;-88
2023/12/21 06:03:47;;;;;;;12.13;2.42;;;9.10;99.90;;;;;;5047014;28;20039;-89
2023/12/21 06:06:13;;;;;;;7.63;2.20;;;9.20;99.90;;;;;;5048503;28;20101;-88
2023/12/21 06:08:39;;;;;;;12.30;2.40;;;9.10;99.90;;;;;;5048654;28;20059;-87
2023/12/21 06:11:06;;;;;;;9.63;2.50;;;9.10;99.90;;;;;;5056657;28;20032;-89
2023/12/21 06:13:33;;;;;;;8.90;2.45;;;9.20;99.90;;;;;;5065476;28;20071;-88
2023/12/21 06:15:59;;;;;;;11.18;2.35;;;9.10;99.90;;;;;;5065544;28;20266;-89
2023/12/21 06:18:25;;;;;;;12.55;2.70;;;9.10;99.90;;;;;;5080667;28;20043;-88
2023/12/21 06:20:51;;;;;;;10.45;2.20;;;9.20;99.90;;;;;;5048977;28;20025;-88
2023/12/21 06:23:17;;;;;;;8.15;2.30;;;9.20;99.90;;;;;;5049601;28;20354;-89
2023/12/21 06:25:43;;;;;;;11.77;2.63;;;9.10;99.90;;;;;;5048985;28;21387;-88
2023/12/21 06:28:09;;;;;;;10.15;2.38;;;9.20;99.90;;;;;;5058699;28;20439;-88
2023/12/21 06:30:35;;;;;;;11.38;2.67;;;9.20;99.90;;;;;;5062160;28;20153;-89
2023/12/21 06:33:01;;;;;;;13.70;3.22;;;9.20;99.90;;;;;;5049150;28;20178;-89
2023/12/21 06:35:27;;;;;;;13.13;2.65;;;9.30;99.90;;;;;;5066793;28;20138;-88
2023/12/21 06:37:52;;;;;;;8.80;2.30;;;9.20;99.90;;;;;;5073748;28;20040;-90
2023/12/21 06:40:18;;;;;;;11.23;2.60;;;9.20;99.90;;;;;;5051661;28;20359;-90
2023/12/21 06:42:44;;;;;;;14.07;3.17;;;9.30;99.90;;;;;;5051642;28;20043;-92
2023/12/21 06:45:11;;;;;;;9.45;2.95;;;9.20;99.90;;;;;;5072851;28;20024;-88
2023/12/21 06:47:37;;;;;;;10.60;2.63;;;9.20;99.90;;;;;;5103274;28;20103;-90
2023/12/21 06:50:04;;;;;;;11.48;2.65;;;9.20;99.90;;;;;;5091700;28;20024;-90
2023/12/21 06:52:30;;;;;;;7.60;2.20;;;9.30;99.90;;;;;;5084163;28;20036;-89
2023/12/21 06:54:56;;;;;;;10.55;2.30;;;9.20;99.90;;;;;;5038501;28;20039;-89
2023/12/21 06:57:23;;;;;;;6.10;1.70;;;9.30;99.90;;;;;;5062646;28;20036;-89
2023/12/21 06:59:49;;;;;;;7.18;2.10;;;9.30;99.90;;;;;;5075049;28;20403;-88
2023/12/21 07:02:14;;;;;;;7.20;2.22;;;9.30;99.90;;;;;;5068372;28;20099;-90
2023/12/21 07:04:40;;;;;;;6.47;2.20;;;9.30;99.90;;;;;;5092125;28;20028;-90
2023/12/21 07:07:06;;;;;;;9.13;2.20;;;9.30;99.90;;;;;;5070273;28;20028;-89
2023/12/21 07:09:32;;;;;;;5.82;2.00;;;9.30;99.90;;;;;;5068765;28;20296;-91
2023/12/21 07:11:59;;;;;;;7.82;1.80;;;9.30;99.90;;;;;;5056207;28;20046;-90
2023/12/21 07:14:25;;;;;;;6.00;1.85;;;9.30;99.90;;;;;;5076693;28;20116;-90
2023/12/21 07:16:51;;;;;;;7.60;1.90;;;9.30;99.90;;;;;;5068114;28;20034;-90
2023/12/21 07:19:17;;;;;;;6.47;1.77;;;9.30;99.90;;;;;;5073744;28;20032;-89
2023/12/21 07:21:43;;;;;;;6.25;1.92;;;9.20;99.90;;;;;;5072098;28;20081;-90
2023/12/21 07:24:09;;;;;;;5.32;1.63;;;9.20;99.90;;;;;;5047419;28;20040;-89
2023/12/21 07:26:35;;;;;;;4.57;1.35;;;9.30;99.90;;;;;;5065518;28;20040;-91
2023/12/21 07:29:01;;;;;;;5.57;1.60;;;9.30;99.90;;;;;;5084592;28;20085;-91
2023/12/21 07:31:26;;;;;;;6.03;1.70;;;9.30;99.90;;;;;;5068932;28;20155;-90
2023/12/21 07:33:52;;;;;;;4.97;1.50;;;9.30;99.90;;;;;;5067344;28;20246;-90
2023/12/21 07:36:18;;;;;;;6.72;1.95;;;9.30;99.90;;;;;;5049404;28;20055;-90
2023/12/21 07:38:44;;;;;;;3.85;1.50;;;9.30;99.90;;;;;;5051471;28;20038;-90
2023/12/21 07:41:13;;;;;;;6.93;1.70;;;9.30;99.90;;;;;;5066673;28;20218;-91
2023/12/21 07:43:41;;;;;;;3.90;1.70;;;9.30;99.90;;;;;;5032013;28;20020;-90
2023/12/21 07:46:08;;;;;;;4.88;1.60;;;9.20;99.90;;;;;;5065293;28;20044;-90
2023/12/21 07:48:34;;;;;;;6.55;2.00;;;9.50;99.90;;;;;;5100889;28;20282;-89
2023/12/21 07:51:00;;;;;;;6.45;1.60;;;9.30;99.90;;;;;;5049706;28;20303;-90
2023/12/21 07:53:25;;;;;;;7.45;1.75;;;9.20;99.90;;;;;;5067295;28;20039;-91
2023/12/21 07:55:51;;;;;;;5.70;1.63;;;9.30;99.90;;;;;;5069869;28;20027;-88
2023/12/21 07:58:17;;;;;;;6.30;1.80;;;9.30;99.90;;;;;;5094676;28;20032;-91
2023/12/21 08:00:42;;;;;;;7.75;1.85;;;9.30;99.90;;;;;;5087850;28;20036;-91
2023/12/21 08:03:08;;;;;;;6.85;2.03;;;9.40;99.90;;;;;;5034147;28;20255;-90
2023/12/21 08:05:34;;;;;;;7.63;1.90;;;9.30;99.90;;;;;;5071168;28;20262;-92
2023/12/21 08:07:59;;;;;;;6.82;1.67;;;9.30;99.90;;;;;;5061922;28;20031;-91
2023/12/21 08:10:25;;;;;;;7.88;1.80;;;9.30;99.90;;;;;;5051194;28;20058;-91
2023/12/21 08:12:51;;;;;;;5.50;1.60;;;9.40;99.90;;;;;;5054697;28;20212;-91
2023/12/21 08:15:17;;;;;;;4.88;1.70;;;9.30;99.90;;;;;;5067615;28;20060;-91
2023/12/21 08:17:44;;;;;;;8.20;1.80;;;9.40;99.90;;;;;;5066677;28;20099;-91
2023/12/21 08:20:12;;;;;;;6.85;1.70;;;9.30;99.90;;;;;;5058051;28;20024;-91
2023/12/21 08:22:38;;;;;;;6.32;1.83;;;9.40;99.90;;;;;;5058997;28;20048;-91
2023/12/21 08:25:04;;;;;;;6.85;2.00;;;9.40;99.90;;;;;;5051909;28;20032;-92
2023/12/21 08:27:30;;;;;;;7.20;1.77;;;9.30;99.90;;;;;;5066856;28;20082;-92
2023/12/21 08:29:55;;;;;;;8.95;2.35;;;9.40;99.90;;;;;;5066885;28;20028;-92
2023/12/21 08:32:21;;;;;;;6.60;1.83;;;9.40;99.90;;;;;;5034662;28;20052;-92
2023/12/21 08:34:47;;;;;;;8.13;1.80;;;9.30;99.90;;;;;;5050840;28;20028;-91
2023/12/21 08:37:14;;;;;;;12.05;2.50;;;9.40;99.90;;;;;;5071504;28;20366;-92
2023/12/21 08:39:40;;;;;;;10.88;2.38;;;9.40;99.90;;;;;;5055273;28;20032;-92
2023/12/21 08:42:09;;;;;;;10.45;2.83;;;9.40;99.90;;;;;;5066079;28;20093;-91
2023/12/21 08:44:35;;;;;;;9.25;2.13;;;9.40;99.90;;;;;;5033520;28;20112;-92
2023/12/21 08:47:01;;;;;;;11.65;3.13;;;9.50;99.90;;;;;;5086199;28;20040;-92
2023/12/21 08:49:27;;;;;;;12.70;2.65;;;9.50;99.90;;;;;;5048708;28;20095;-91
2023/12/21 08:51:53;;;;;;;11.05;2.80;;;9.50;99.90;;;;;;5043787;28;20252;-92
2023/12/21 08:54:20;;;;;;;12.88;3.20;;;9.50;99.90;;;;;;5058250;28;20036;-89
2023/12/21 08:56:46;;;;;;;13.60;2.90;;;9.60;99.90;;;;;;5052710;28;20257;-92
2023/12/21 08:59:12;;;;;;;12.48;3.10;;;9.50;99.90;;;;;;5052193;28;20222;-92
2023/12/21 09:01:38;;;;;;;8.52;2.47;;;9.50;99.90;;;;;;5049104;28;20055;-92
2023/12/21 09:04:04;;;;;;;16.98;2.80;;;9.60;99.90;;;;;;5055315;28;20116;-91
2023/12/21 09:06:31;;;;;;;9.75;2.47;;;9.60;99.90;;;;;;5054096;28;20281;-91
2023/12/21 09:08:58;;;;;;;11.25;2.72;;;9.70;99.90;;;;;;5072594;28;20066;-92
2023/12/21 09:11:25;;;;;;;12.25;2.63;;;9.70;99.90;;;;;;5092206;28;20095;-91
2023/12/21 09:13:51;;;;;;;10.90;2.50;;;9.70;99.90;;;;;;5070127;28;20028;-91
2023/12/21 09:16:17;;;;;;;11.30;2.60;;;9.70;99.90;;;;;;5059341;28;20055;-90
2023/12/21 09:18:46;;;;;;;10.40;2.53;;;9.70;99.90;;;;;;5076778;28;20278;-93
2023/12/21 09:21:12;;;;;;;12.95;2.50;;;9.80;99.90;;;;;;5071002;28;20057;-93
2023/12/21 09:23:41;;;;;;;9.70;2.20;;;9.80;99.90;;;;;;5059344;28;20035;-93
2023/12/21 09:26:11;;;;;;;9.55;2.35;;;9.80;99.90;;;;;;5042140;28;20300;-89
2023/12/21 09:28:37;;;;;;;12.93;3.15;;;9.90;99.90;;;;;;5071565;28;20032;-92
2023/12/21 09:31:04;;;;;;;9.52;2.60;;;9.90;99.90;;;;;;5081525;28;20032;-92
2023/12/21 09:33:36;;;;;;;13.68;2.72;;;9.90;99.90;;;;;;5054886;28;20052;-91
2023/12/21 09:36:03;;;;;;;12.48;3.28;;;9.90;99.90;;;;;;5058767;28;20044;-92
2023/12/21 09:38:31;;;;;;;10.75;2.50;;;9.90;99.90;;;;;;5103677;28;20042;-91
2023/12/21 09:40:57;;;;;;;16.05;3.40;;;9.90;99.90;;;;;;5043899;28;20039;-91
2023/12/21 09:43:23;;;;;;;10.20;2.38;;;9.90;99.90;;;;;;5070709;28;20032;-90
2023/12/21 09:45:52;;;;;;;12.07;2.45;;;10.00;99.90;;;;;;5072150;28;20221;-90
2023/12/21 09:48:22;;;;;;;15.27;2.90;;;10.00;99.90;;;;;;5071201;28;20039;-91
2023/12/21 09:50:49;;;;;;;13.30;2.75;;;10.10;99.90;;;;;;5081037;28;20032;-90
2023/12/21 09:53:22;;;;;;;13.45;2.85;;;10.10;99.90;;;;;;5054180;28;20036;-90
2023/12/21 09:55:48;;;;;;;;;;;10.10;99.90;;;;;;5095094;28;20238;-90
2023/12/21 09:58:15;;;;;;;13.07;2.30;;;10.20;99.90;;;;;;5058084;28;19927;-89
2023/12/21 10:00:41;;;;;;;9.30;2.28;;;10.10;99.90;;;;;;5062553;28;20056;-92
2023/12/21 10:03:07;;;;;;;9.10;2.30;;;10.20;99.90;;;;;;5054385;28;20028;-92
2023/12/21 10:05:34;;;;;;;12.45;2.75;;;10.20;99.90;;;;;;5055551;28;20028;-93
2023/12/21 10:08:01;;;;;;;11.75;2.70;;;10.30;99.90;;;;;;5087431;28;20035;-92
2023/12/21 10:10:27;;;;;;;10.32;2.17;;;10.30;99.90;;;;;;5087125;28;20059;-92
2023/12/21 10:12:53;;;;;;;12.45;2.55;;;10.20;99.90;;;;;;5058849;28;20037;-91
2023/12/21 10:15:19;;;;;;;10.73;2.65;;;10.30;99.90;;;;;;5067749;28;20278;-92
2023/12/21 10:17:45;;;;;;;10.40;2.53;;;10.30;99.90;;;;;;5080073;28;20115;-91
2023/12/21 10:20:12;;;;;;;12.52;2.90;;;10.30;99.90;;;;;;5053856;28;20078;-91
2023/12/21 10:22:44;;;;;;;13.75;2.72;;;10.30;99.90;;;;;;5043914;28;20028;-90
2023/12/21 10:25:11;;;;;;;9.18;2.30;;;10.40;99.90;;;;;;5083954;28;20044;-93
2023/12/21 10:27:37;;;;;;;11.82;2.70;;;10.40;99.90;;;;;;5072120;28;20141;-88
2023/12/21 10:30:04;;;;;;;13.10;3.25;;;10.40;99.90;;;;;;5069017;28;20032;-92
2023/12/21 10:32:30;;;;;;;12.23;2.72;;;10.50;99.90;;;;;;5070052;28;20057;-91
2023/12/21 10:34:59;;;;;;;16.02;3.25;;;10.60;99.90;;;;;;5086211;28;20044;-91
2023/12/21 10:37:25;;;;;;;10.45;2.60;;;10.60;99.90;;;;;;5097678;28;20048;-92
2023/12/21 10:39:56;;;;;;;11.73;2.55;;;10.70;99.90;;;;;;5033422;28;20059;-92
2023/12/21 10:42:22;;;;;;;12.50;3.28;;;10.70;99.90;;;;;;5083815;28;20040;-92
2023/12/21 10:44:49;;;;;;;9.27;2.13;;;10.60;99.90;;;;;;5051293;28;20025;-92
2023/12/21 10:47:18;;;;;;;12.60;2.90;;;10.60;99.90;;;;;;5071387;28;20067;-89
2023/12/21 10:49:45;;;;;;;13.27;2.90;;;10.60;99.90;;;;;;5110444;27;20088;-91
2023/12/21 10:52:12;;;;;;;8.98;2.72;;;10.60;99.90;;;;;;5065919;28;20024;-91
2023/12/21 10:54:42;;;;;;;16.33;2.80;;;10.60;99.90;;;;;;5048343;28;20370;-89
2023/12/21 10:57:10;;;;;;;14.70;3.13;;;10.70;99.90;;;;;;5082368;28;20032;-91
2023/12/21 10:59:37;;;;;;;12.98;3.00;;;10.70;99.90;;;;;;5032176;28;20075;-90
2023/12/21 11:02:03;;;;;;;8.65;2.58;;;10.70;99.90;;;;;;5066148;28;20099;-91
2023/12/21 11:04:30;;;;;;;10.75;3.00;;;10.80;99.90;;;;;;5082445;28;20032;-91
2023/12/21 11:06:57;;;;;;;11.27;2.83;;;10.80;99.90;;;;;;5081199;28;20032;-92
2023/12/21 11:09:25;;;;;;;15.13;3.40;;;10.80;99.90;;;;;;5081285;28;20028;-92
2023/12/21 11:11:56;;;;;;;13.40;2.83;;;10.80;99.90;;;;;;5046767;28;20115;-91
2023/12/21 11:14:23;;;;;;;12.73;3.13;;;10.60;99.90;;;;;;5065845;28;20094;-92
2023/12/21 11:16:58;;;;;;;13.23;3.30;;;10.50;99.90;;;;;;5065039;28;20281;-91
2023/12/21 11:19:38;;;;;;;12.18;2.75;;;10.50;99.90;;;;;;5050610;28;20200;-91
2023/12/21 11:22:04;;;;;;;15.05;3.67;;;10.60;99.90;;;;;;5071893;28;20032;-91
2023/12/21 11:24:30;;;;;;;12.50;2.95;;;10.60;99.90;;;;;;5080937;28;20085;-91
2023/12/21 11:26:59;;;;;;;14.43;3.20;;;10.60;99.90;;;;;;5030942;28;20024;-89
2023/12/21 11:29:28;;;;;;;12.57;3.08;;;10.70;99.90;;;;;;5064726;28;20111;-90
2023/12/21 11:31:55;;;;;;;12.40;3.15;;;10.60;99.90;;;;;;5051096;28;20034;-89
2023/12/21 11:34:34;;;;;;;10.80;2.83;;;10.70;99.90;;;;;;5080456;28;20048;-91
2023/12/21 11:37:36;;;;;;;12.77;2.85;;;10.70;99.90;;;;;;5057399;28;20052;-91
2023/12/21 11:40:04;;;;;;;12.57;3.17;;;10.70;99.90;;;;;;5050382;28;20107;-91
2023/12/21 11:42:37;;;;;;;13.23;2.92;;;10.70;99.90;;;;;;5064404;28;20028;-91
2023/12/21 11:45:07;;;;;;;12.13;2.97;;;10.70;99.90;;;;;;5047685;28;20032;-91
2023/12/21 11:47:34;;;;;;;17.42;3.10;;;10.70;99.90;;;;;;5063274;28;20453;-90
2023/12/21 11:50:19;;;;;;;14.48;3.33;;;10.80;99.90;;;;;;5064145;28;20236;-90
2023/12/21 11:52:46;;;;;;;15.68;3.35;;;10.90;99.90;;;;;;5048035;28;20285;-90
2023/12/21 11:55:22;;;;;;;14.45;3.20;;;10.90;99.90;;;;;;5045211;28;20037;-90
2023/12/21 11:57:47;;;;;;;15.38;3.47;;;10.90;99.90;;;;;;5077484;28;20032;-91
2023/12/21 12:00:16;;;;;;;15.23;3.83;;;10.90;99.90;;;;;;5065310;28;20122;-91
2023/12/21 12:02:45;;;;;;;13.32;3.05;;;10.90;99.90;;;;;;5068194;28;20033;-91
2023/12/21 12:05:11;;;;;;;15.25;3.22;;;10.80;99.90;;;;;;5081186;28;20032;-90
2023/12/21 12:07:37;;;;;;;17.88;3.80;;;10.90;99.90;;;;;;5078689;28;20029;-90
2023/12/21 12:10:03;;;;;;;15.88;3.60;;;11.00;99.90;;;;;;5046687;28;20283;-87
2023/12/21 12:12:30;;;;;;;17.00;3.97;;;10.90;99.90;;;;;;5065009;28;20329;-91
2023/12/21 12:14:55;;;;;;;13.63;3.78;;;11.00;99.90;;;;;;5048198;28;20281;-90
2023/12/21 12:17:21;;;;;;;12.93;2.95;;;11.00;99.90;;;;;;5032025;28;20048;-91
2023/12/21 12:19:47;;;;;;;17.08;3.70;;;10.90;99.90;;;;;;5081355;28;20085;-90
2023/12/21 12:22:14;;;;;;;13.27;3.08;;;11.00;99.90;;;;;;5065353;28;20221;-90
2023/12/21 12:24:42;;;;;;;22.02;4.65;;;11.00;99.90;;;;;;5081785;28;20089;-90
2023/12/21 12:27:09;;;;;;;13.63;3.58;;;11.00;99.90;;;;;;5064923;28;20070;-92
2023/12/21 12:29:35;;;;;;;16.38;3.85;;;11.00;99.90;;;;;;5065079;28;20036;-91
2023/12/21 12:32:01;;;;;;;14.60;3.75;;;10.90;99.90;;;;;;5046978;28;20089;-90
2023/12/21 12:34:27;;;;;;;19.13;4.13;;;10.90;99.90;;;;;;5081917;28;20040;-91
2023/12/21 12:36:56;;;;;;;14.90;3.47;;;10.90;99.90;;;;;;5064966;28;20214;-91
2023/12/21 12:39:22;;;;;;;13.65;3.70;;;10.90;99.90;;;;;;5081096;28;20059;-91
2023/12/21 12:41:57;;;;;;;7.88;2.00;;;11.00;99.90;;;;;;5082388;28;20024;-91
2023/12/21 12:44:24;;;;;;;9.60;2.03;;;10.30;99.90;;;;;;5068158;28;20032;-91